Change Date:Time:

Metar of : 12/14/2018 2000UTC
Metar
OPGW 31002KT 5000 NSC 11/08 81%
OPNL 00000KT 1000 BR NSC 09/06 Q1022 80%
OPOK 00000KT 4000 FU NSC 10/08 Q1026 87%
OPBKR 00000KT 5000 FU NSC 12/11 94%
OPBR 00000KT 6000 NSC 11/08 81%
OPBW 36005KT 1500 BR NSC 10/07 Q1025 81%
OPBW( CITY) 00000KT 1300 BR NSC 10/07 87%
OPCK 00000KT 7000 NSC 07/05 86%
OPDG 31004KT 2500 FU NSC 09/03 Q1023 66%
OPDU 142000Z 31502KT 4000 NSC FU 13/08 71%
OPFA 00000KT 4000 FU NSC 10/06 Q1024 NOSIG RH80%
OPGD 142000z 00000KT 4000 HZ FEW020 18/14 Q1023 76%
OPGP 00000KT 6000 NSC 04/03 92%
OPHD 00000KT 4000 BR NSC 09 /08 93%
OPHQ 00000KT 4000 HZ NSC 05/04 Q1026 RH 92%
OPIS 23004KT 2000 BR NSC 07/06 Q1024 RH89%
OPJBD 00000KT 1500 BR NSC 09/08 93%
OPJG 00000KT 4000 FU NSC 09/08 Q1026 93%
OPJM 00000KT 4000 FU NSC 09/06 86%
OPKAD 00000KT 3000 BR NSC 11/09 87%
OPKC 142000Z 05006KT 6000 NSC 18/06 Q1022 45%
OPKD 142000Z 36014KT 6000 NSC 16/08 Q1021 60% No sig
OPKE 142000Z 00000KT 6000 NSC 12/03 Q1022 54%
OPKL 05002KT 6000 NSC 08/05 81%
OPKP 00000KT 2000 BR NSC 10/07 87%
OPKRL 00000KT 2500 BR NSC 10/08 87%
OPKS 00000KT 4000 FU NSC 11/09 87%
OPLA 00000KT 4000 FU NSC 10/07 Q1023 A30.19 NOSIG RH 86%
OPLA( CITY) 00000KT 3000 FU NSC 13/07 Q1024 RH71% H/RAIN NIL
OPLRK 142000Z 00000KT 4000 HZ NSC 14/10 Q1025 78%
OPMB 00000KT 2000 BR NSC 09/08 Q1026 93%
OPME 00000KT 8000 NSC 03/M04 62%
OPMF 00000KT 6000 NSC 05/03 85%
OPMIT 142000Z 36002KT 6000 NSC 13/02 Q1021 46%
OPMT 00000KT 4000 FU NSC 11/09 Q1023 NOSIG RH87%
OPNH 142000Z 00000KT 3000 FU NSC 13/09 Q1023 77% NOSIG
OPNPT 00000KT 6000 NSC 10/09 93%
OPPG 142000Z 36004KT 6000 SKC 11/M01 Q1026 44%
OPQT 13004KT 6000 SKC 01/M10 Q1028 RH.43%
OPRK 00000KT 2000 FU NSC 12/08 Q 1024 76%
OPRN 00000KT 4000 BR NSC 08/06 Q1025 NOSIG RMK A3027 RH 87%
OPRT 00000KT 8000 NSC 01/M02 Q1030 83%
OPSG 00000KT 4000 FU NSC 11/10 94%
OPSK 142000Z 00000KT 2000 HZ NSC 12/08 Q1024 76% TEMPO 2000 BR
OPSKT 00000KT 2500 BR NSC 10/07 81%
OPST 31004KT 4000 FU NSC 09/07 Q1023 NOSIG RH86%
OPSW 00000KT 3000 FU NSC 12/09 Q1024 76%
OPTS 00000KT 2000 BR NSC 10/08 87%
OPUG 00000KT 4000 FU NSC 09/06 86%
CodeW.DirSpeedVisibilityCloud ConditionTempPressureHumidityStation
OPBR00000KTClear11oC81%Bahawalnagar
OPBW36005KT1500mMist10oC1025hp81%Bahawalpur City
OPBKR00000KT94%Bhakkar
OPRN00000KT4000mMist08oC1025hp87%CHAKLALA- RAWALPINDI
OPCK00000KT7000mClear07oC86%Chakwal
OPKE00000KT6000mClear12oC1022hp54%Chhor
OPDG31004KT2500mHaze09oC1023hp66%D-G-KHAN
OPFA00000KT4000mHaze10oC1024hp80%Faisalabad Airport
OPGP00000KT6000mClear04oC92%GARHI DOPATTA
OPGD00000KT4000mPartly Cloudy18oC1023hp76%Gawadar
OPGW31002KT5000mClear11oC81%Gujranwala
OPUG00000KT4000mHaze09oC86%Gujrat
OPKD36014KT6000mClear16oC1021hp60%Hyderabad
OPIS23004KT2000mMist07oC1024hp89%Islamabad Airport
OPHQ00000KT4000mHaze05oC1026hp92%Islamabad City
OPJG00000KT4000mHaze09oC1026hp93%Jhang
OPJM00000KT4000mHaze09oC86%Jhelum
OPJBD00000KT1500mMist09oC93%Joharabad
OPKC05006KT6000mClear18oC1022hp45%Karachi Airport
OPKRL00000KT2500mMist10oC87%KAROR (LAYYAH)
OPKS00000KT4000mHaze11oC87%Kasur
OPKP00000KT2000mMist10oC87%Khanpur
OPKAD00000KT3000mMist11oC87%KOT ADDU
OPKL05002KT6000mClear08oC81%Kotli
OPLA00000KT4000mHaze10oC1023hp86%Lahore Airport
OPMB00000KT2000mMist09oC1026hp93%MANDI BAHUDDIN
OPMT00000KT4000mHaze11oC1023hp87%Multan
OPME00000KT8000mClear03oC62%Murree
OPMF00000KT6000mClear05oC85%MUZAFFARABAD
OPNPT00000KT6000mClear10oC93%NOOR PUR THAL
OPOK00000KT4000mHaze10oC1026hp87%Okara
OPPG36004KT6000mClear11oC1026hp44%Panjgur
OPQT13004KT6000mClear01oC1028hp43%Quetta
OPRT00000KT8000mClear01oC1030hp83%Rawalakot
OPRK00000KT2000mHaze12oC1024hp76%R-Y-KHAN
OPSW00000KT3000mHaze12oC1024hp76%Sahiwal
OPNH00000KT3000mHaze13oC1023hp77%Shaheed Benazirabad
OPST31004KT4000mHaze09oC1023hp86%Sialkot Airport
OPSK00000KT2000mMist12oC1024hp76%Sukkur
OPTS00000KT2000mMist10oC87%T.T. SINGH